Terminal Aerodrome Forecast
Issued by NWS

Home | Current Version | Previous Version | Text Only | Print | Product List | Glossary On
Versions: 1 2 3 4 5 6 7 8 9 10 11 12 13 14 15 16 17 18 19 20 21 22 23 24 25 26 27 28 29 30 31 32 33
000
FTUS46 KLOX 221100
TAFLAX
TAF
KLAX 221132Z 2212/2318 VRB03KT P6SM SCT012
     FM221300 VRB03KT P6SM BKN012
     FM221700 26006KT P6SM SCT015
     FM222000 26014KT P6SM SKC
     FM230300 28010KT P6SM SKC
     FM230700 28006KT P6SM BKN010
     FM230900 VRB03KT P6SM OVC012
     FM231630 23006KT P6SM SCT015=

USA.gov is the U.S. government's official web portal to all federal, state and local government web resources and services.